KHLG/HLG METAR and TAF weather

Enter ICAO airport designator
Station Type Date Time Source
KHLG METAR 2020/07/02 18:53 UTC NOAA

KHLG 021853Z 02008KT 10SM FEW060 31/14 A3000 RMK AO2 SLP152 T03060144


Station Type Date Time Source
KHLG Decoded METAR 2020/07/02 18:53 UTC NOAA

WHEELING OHIO COUNTY AIRPORT, WV, United States (KHLG) 40-10N 080-39W 372M
Jul 02, 2020 - 02:53 PM EDT / 2020.07.02 1853 UTC
Wind: from the NNE (020 degrees) at 9 MPH (8 KT):0
Visibility: 10 mile(s):0
Sky conditions: mostly clear
Temperature: 87.1 F (30.6 C)
Dew Point: 57.9 F (14.4 C)
Relative Humidity: 37%
Pressure (altimeter): 30 in. Hg (1015 hPa)
ob: KHLG 021853Z 02008KT 10SM FEW060 31/14 A3000 RMK AO2 SLP152 T03060144
cycle: 19

Station Type Date Time Source
KHLG TAF 2020/07/02 18:39 UTC NOAA

TAF KHLG 021737Z 0218/0318 36005KT P6SM SCT050

Example: see airport list